This is the latest recevied weather packets stored in our database for station/object IU7URP-13. If no packets are shown the sender has not sent any weather packets the latest 10 day(s).
| Time | Temp. | Humidity | Pressure | Rain* | Wind** | Luminosity | Snow |
|---|---|---|---|---|---|---|---|
| 1777857778 | 13.33° C | 99% | 1021 hPa | - | - | - | - |
| 1777856576 | 12.78° C | 99% | 1020.9 hPa | - | - | - | - |
| 1777855375 | 12.78° C | 99% | 1021 hPa | - | - | - | - |
| 1777855300 | 12.78° C | 99% | 1021 hPa | - | - | - | - |
| 1777854098 | 13.33° C | 99% | 1021 hPa | - | - | - | - |
| 1777852897 | 12.22° C | 99% | 1021.1 hPa | - | - | - | - |
| 1777851696 | 12.78° C | 99% | 1021 hPa | - | - | - | - |
| 1777850494 | 12.78° C | 99% | 1021.1 hPa | - | - | - | - |
| 1777849293 | 12.22° C | 99% | 1021.3 hPa | - | - | - | - |
| 1777848091 | 13.89° C | 99% | 1021.2 hPa | - | - | - | - |
| 1777846890 | 13.33° C | 99% | 1021.3 hPa | - | - | - | - |
| 1777845689 | 13.33° C | 99% | 1021.1 hPa | - | - | - | - |
| 1777844485 | 12.78° C | 99% | 1021 hPa | - | - | - | - |
| 1777843284 | 13.89° C | 99% | 1020.9 hPa | - | - | - | - |
| 1777842082 | 15° C | 99% | 1020.6 hPa | - | - | - | - |
| 1777840880 | 15° C | 99% | 1020.5 hPa | - | - | - | - |
| 1777839679 | 15.56° C | 99% | 1020.6 hPa | - | - | - | - |
| 1777838478 | 15.56° C | 85% | 1020.5 hPa | - | - | - | - |
| 1777838421 | 15.56° C | 85% | 1020.5 hPa | - | - | - | - |
| 1777837215 | 15.56° C | 89% | 1020.5 hPa | - | - | - | - |
| 1777836013 | 16.11° C | 78% | 1020.4 hPa | - | - | - | - |
| 1777834811 | 16.11° C | 69% | 1020.3 hPa | - | - | - | - |
| 1777833610 | 15.56° C | 82% | 1020.2 hPa | - | - | - | - |
| 1777832408 | 16.67° C | 67% | 1019.9 hPa | - | - | - | - |
| 1777831207 | 16.67° C | 64% | 1019.8 hPa | - | - | - | - |
* Rain since midnight (hover to see other rain measurements)
** Current wind speed in m/s (hover to see current wind gust speed)